createdAt,value
2023-03-17T00:02:08.932Z,77.03
2023-03-17T00:04:37.348Z,77.16
2023-03-17T00:07:06.593Z,77.10
2023-03-17T00:09:34.961Z,77.18
2023-03-17T00:12:10.593Z,77.09
2023-03-17T00:14:39.139Z,77.00
2023-03-17T00:17:12.164Z,77.17
2023-03-17T00:19:42.481Z,77.23
2023-03-17T00:22:18.085Z,77.48
2023-03-17T00:24:46.483Z,77.28
2023-03-17T00:27:15.585Z,77.61
2023-03-17T00:29:44.011Z,77.68
2023-03-17T00:32:20.440Z,77.67
2023-03-17T00:34:52.733Z,77.83
2023-03-17T00:37:21.184Z,77.67
2023-03-17T00:39:51.693Z,78.10
2023-03-17T00:42:19.994Z,78.20
2023-03-17T00:44:48.276Z,77.94
2023-03-17T00:47:16.686Z,78.12
2023-03-17T00:49:45.219Z,77.93
2023-03-17T00:52:14.264Z,77.87
2023-03-17T00:54:43.016Z,78.16
2023-03-17T00:57:13.033Z,78.10
2023-03-17T00:59:42.607Z,78.16
2023-03-17T01:02:13.419Z,78.19
2023-03-17T01:04:49.938Z,78.09
2023-03-17T01:07:22.769Z,78.38
2023-03-17T01:09:51.277Z,78.51
2023-03-17T01:12:20.602Z,78.53
2023-03-17T01:14:50.863Z,78.70
2023-03-17T01:17:19.565Z,78.47
2023-03-17T01:19:48.860Z,78.32
2023-03-17T01:22:17.392Z,78.54
2023-03-17T01:24:47.982Z,78.44
2023-03-17T01:27:18.145Z,78.46
2023-03-17T01:29:46.501Z,78.62
2023-03-17T01:32:14.795Z,78.59
2023-03-17T01:34:43.070Z,79.09
2023-03-17T01:37:12.051Z,78.86
2023-03-17T01:39:40.979Z,78.88
2023-03-17T01:42:09.478Z,78.82
2023-03-17T01:44:58.148Z,79.00
2023-03-17T01:47:32.149Z,79.56
2023-03-17T01:50:09.023Z,79.33
2023-03-17T01:52:39.943Z,79.54
2023-03-17T01:55:16.631Z,79.66
2023-03-17T01:57:53.675Z,79.75
2023-03-17T02:00:25.071Z,79.82
2023-03-17T02:02:57.182Z,79.91
2023-03-17T02:05:28.935Z,80.11
2023-03-17T02:07:58.039Z,79.95
2023-03-17T02:10:30.563Z,80.26
2023-03-17T02:13:04.099Z,80.19
2023-03-17T02:15:42.296Z,80.25
2023-03-17T02:18:14.460Z,80.20
2023-03-17T02:20:48.959Z,80.13
2023-03-17T02:23:23.126Z,80.16
2023-03-17T02:25:54.058Z,80.44
2023-03-17T02:28:26.188Z,80.33
2023-03-17T02:30:54.549Z,80.19
2023-03-17T02:33:23.226Z,80.08
2023-03-17T02:35:54.985Z,80.33
2023-03-17T02:38:23.307Z,80.21
2023-03-17T02:40:53.564Z,80.23
2023-03-17T02:43:22.669Z,80.19
2023-03-17T02:45:51.425Z,80.20
2023-03-17T02:48:20.114Z,80.24
2023-03-17T02:50:48.676Z,79.86
2023-03-17T02:53:17.005Z,79.54
2023-03-17T02:55:45.368Z,79.26
2023-03-17T02:58:13.743Z,79.47
2023-03-17T03:00:42.138Z,79.30
2023-03-17T03:03:10.539Z,78.90
2023-03-17T03:05:38.993Z,78.74
2023-03-17T03:08:07.927Z,78.94
2023-03-17T03:10:36.593Z,78.88
2023-03-17T03:13:05.285Z,78.95
2023-03-17T03:15:33.738Z,78.75
2023-03-17T03:18:02.164Z,78.82
2023-03-17T03:20:30.762Z,78.73
2023-03-17T03:22:59.375Z,78.95
2023-03-17T03:25:28.181Z,79.04
2023-03-17T03:27:56.623Z,79.13
2023-03-17T03:30:24.961Z,79.01
2023-03-17T03:32:53.323Z,79.10
2023-03-17T03:35:21.851Z,79.02
2023-03-17T03:37:50.293Z,79.22
2023-03-17T03:40:18.985Z,79.25
2023-03-17T03:42:47.314Z,79.21
2023-03-17T03:45:15.829Z,79.47
2023-03-17T03:47:44.347Z,79.46
2023-03-17T03:50:13.351Z,79.49
2023-03-17T03:52:42.269Z,79.24
2023-03-17T03:55:11.296Z,79.35
2023-03-17T03:57:39.686Z,79.56
2023-03-17T04:00:11.463Z,79.58
2023-03-17T04:02:45.314Z,79.70
2023-03-17T04:05:18.957Z,79.97
2023-03-17T04:07:48.142Z,79.87
2023-03-17T04:10:17.359Z,79.80
2023-03-17T04:12:46.652Z,79.61
2023-03-17T04:15:17.342Z,79.37
2023-03-17T04:17:46.654Z,79.43
2023-03-17T04:20:17.338Z,79.64
2023-03-17T04:22:45.703Z,79.29
2023-03-17T04:25:15.506Z,79.32
2023-03-17T04:27:43.848Z,78.85
2023-03-17T04:30:17.170Z,78.94
2023-03-17T04:33:05.589Z,78.89
2023-03-17T04:35:34.108Z,78.77
2023-03-17T04:38:03.010Z,78.87
2023-03-17T04:40:31.807Z,78.96
2023-03-17T04:43:02.959Z,79.00
2023-03-17T04:45:32.018Z,79.01
2023-03-17T04:48:00.396Z,79.00
2023-03-17T04:50:29.383Z,79.26
2023-03-17T04:52:58.071Z,79.39
2023-03-17T04:55:27.770Z,79.53
2023-03-17T04:57:56.168Z,79.66
2023-03-17T05:00:24.698Z,79.76
2023-03-17T05:02:53.389Z,79.78
2023-03-17T05:05:21.803Z,79.73
2023-03-17T05:07:50.188Z,79.24
2023-03-17T05:10:18.641Z,79.09
2023-03-17T05:12:47.220Z,78.83
2023-03-17T05:15:16.176Z,78.09
2023-03-17T05:17:44.556Z,77.42
2023-03-17T05:20:13.865Z,77.08
2023-03-17T05:22:42.547Z,76.89
2023-03-17T05:25:10.930Z,77.16
2023-03-17T05:27:39.732Z,77.31
2023-03-17T05:30:28.314Z,76.42
2023-03-17T05:32:56.874Z,75.90
2023-03-17T05:35:25.696Z,75.38
2023-03-17T05:37:54.142Z,74.40
2023-03-17T05:40:24.091Z,72.94
2023-03-17T05:42:52.626Z,73.08
2023-03-17T05:45:20.992Z,72.46
2023-03-17T05:47:49.453Z,72.10
2023-03-17T05:50:17.982Z,72.25
2023-03-17T05:52:48.010Z,71.85
2023-03-17T05:55:17.579Z,71.63
2023-03-17T05:57:46.494Z,70.80
2023-03-17T06:00:16.478Z,71.11
2023-03-17T06:02:45.326Z,71.33
2023-03-17T06:05:13.912Z,72.13
2023-03-17T06:07:53.024Z,71.45
2023-03-17T06:10:23.492Z,71.10
2023-03-17T06:12:52.296Z,70.95
2023-03-17T06:15:21.292Z,69.79
2023-03-17T06:17:49.781Z,67.76
2023-03-17T06:20:19.480Z,66.40
2023-03-17T06:23:02.714Z,67.38
2023-03-17T06:25:34.954Z,65.89
2023-03-17T06:28:05.736Z,66.24
2023-03-17T06:30:35.690Z,65.31
2023-03-17T06:33:04.760Z,63.71
2023-03-17T06:35:34.737Z,63.63
2023-03-17T06:38:03.781Z,60.81
2023-03-17T06:40:32.393Z,60.06
2023-03-17T06:43:01.955Z,59.14
2023-03-17T06:45:33.353Z,59.21
2023-03-17T06:48:02.470Z,59.93
2023-03-17T06:50:31.116Z,57.98
2023-03-17T06:53:03.263Z,57.14
2023-03-17T06:56:19.962Z,55.36
2023-03-17T06:58:58.840Z,54.40
2023-03-17T07:01:27.712Z,54.13
2023-03-17T07:03:56.360Z,53.27
2023-03-17T07:06:25.017Z,50.88
2023-03-17T07:08:53.426Z,52.14
2023-03-17T07:11:23.863Z,50.81
2023-03-17T07:13:52.904Z,49.70
2023-03-17T07:16:21.498Z,47.76
2023-03-17T07:18:50.814Z,47.99
2023-03-17T07:21:19.255Z,46.47
2023-03-17T07:23:48.098Z,47.85
2023-03-17T07:26:16.527Z,46.30
2023-03-17T07:28:44.867Z,44.80
2023-03-17T07:31:14.747Z,43.74
2023-03-17T07:33:43.652Z,46.28
2023-03-17T07:36:12.014Z,44.00
2023-03-17T07:38:40.398Z,43.01
2023-03-17T07:41:11.142Z,43.86
2023-03-17T07:43:39.429Z,39.87
2023-03-17T07:46:08.682Z,40.25
2023-03-17T07:48:41.097Z,40.38
2023-03-17T07:51:14.375Z,42.75
2023-03-17T07:53:43.242Z,42.60
2023-03-17T07:56:12.258Z,43.77
2023-03-17T07:58:40.681Z,41.96
2023-03-17T08:01:10.117Z,42.04
2023-03-17T08:03:41.312Z,41.79
2023-03-17T08:06:10.102Z,42.39
2023-03-17T08:08:38.585Z,40.91
2023-03-17T08:11:07.854Z,37.29
2023-03-17T08:13:36.330Z,39.67
2023-03-17T08:16:05.166Z,40.16
2023-03-17T08:18:33.607Z,40.65
2023-03-17T08:21:02.402Z,39.71
2023-03-17T08:23:31.410Z,37.88
2023-03-17T08:26:03.347Z,35.88
2023-03-17T08:28:32.720Z,36.23
2023-03-17T08:31:13.798Z,35.87
2023-03-17T08:34:05.969Z,37.12
2023-03-17T08:36:47.502Z,36.37
2023-03-17T08:39:16.054Z,35.45
2023-03-17T08:41:44.652Z,34.48
2023-03-17T08:44:14.875Z,34.54
2023-03-17T08:47:05.435Z,34.51
2023-03-17T08:49:47.168Z,34.59
2023-03-17T08:52:16.455Z,35.47
2023-03-17T08:54:44.811Z,35.60
2023-03-17T08:57:15.602Z,34.92
2023-03-17T08:59:44.169Z,34.05
2023-03-17T09:02:13.442Z,32.84
2023-03-17T09:04:43.406Z,34.13
2023-03-17T09:07:12.192Z,34.11
2023-03-17T09:09:41.591Z,34.28
2023-03-17T09:12:11.430Z,35.50
2023-03-17T09:14:44.113Z,36.08
2023-03-17T09:17:14.642Z,33.84
2023-03-17T09:19:43.793Z,33.66
2023-03-17T09:22:14.295Z,33.62
2023-03-17T09:24:42.958Z,32.87
2023-03-17T09:27:11.621Z,33.35
2023-03-17T09:29:42.294Z,33.87
2023-03-17T09:32:11.417Z,33.56
2023-03-17T09:34:39.844Z,34.54
2023-03-17T09:37:10.078Z,34.22
2023-03-17T09:39:38.625Z,33.38
2023-03-17T09:42:29.867Z,32.95
2023-03-17T09:45:13.574Z,33.27
2023-03-17T09:48:05.134Z,32.98
2023-03-17T09:50:42.700Z,31.07
2023-03-17T09:53:34.846Z,30.98
2023-03-17T09:56:18.193Z,29.59
2023-03-17T09:59:04.924Z,30.97
2023-03-17T10:01:34.355Z,33.18
2023-03-17T10:04:02.862Z,33.20
2023-03-17T10:06:42.728Z,31.80
2023-03-17T10:09:47.224Z,31.42
2023-03-17T10:13:00.718Z,31.64
2023-03-17T10:15:43.968Z,31.64
2023-03-17T10:18:15.447Z,31.51
2023-03-17T10:20:56.518Z,31.32
2023-03-17T10:23:30.103Z,32.98
2023-03-17T10:26:08.374Z,30.97
2023-03-17T10:28:39.017Z,29.66
2023-03-17T10:31:20.206Z,29.24
2023-03-17T10:33:54.707Z,30.08
2023-03-17T10:36:40.888Z,29.47
2023-03-17T10:39:14.572Z,30.91
2023-03-17T10:41:53.356Z,34.64
2023-03-17T10:44:35.901Z,34.07
2023-03-17T10:47:04.460Z,33.91
2023-03-17T10:49:37.330Z,32.59
2023-03-17T10:52:08.402Z,32.84
2023-03-17T10:54:37.353Z,30.56
2023-03-17T10:57:10.801Z,28.86
2023-03-17T10:59:44.836Z,28.38
2023-03-17T11:02:29.701Z,28.77
2023-03-17T11:05:05.323Z,29.85
2023-03-17T11:07:40.351Z,31.28
2023-03-17T11:10:37.898Z,30.93
2023-03-17T11:13:06.935Z,29.57
2023-03-17T11:15:41.656Z,28.84
2023-03-17T11:18:28.466Z,29.04
2023-03-17T11:21:02.884Z,28.91
2023-03-17T11:23:54.268Z,30.08
2023-03-17T11:27:04.047Z,29.44
2023-03-17T11:29:45.006Z,28.79
2023-03-17T11:32:26.902Z,30.70
2023-03-17T11:35:18.660Z,31.12
2023-03-17T11:37:59.085Z,32.00
2023-03-17T11:40:36.335Z,28.33
2023-03-17T11:43:29.728Z,28.19
2023-03-17T11:46:28.550Z,31.14
2023-03-17T11:49:12.415Z,28.38
2023-03-17T11:51:43.656Z,26.66
2023-03-17T11:54:16.052Z,26.07
2023-03-17T11:57:01.484Z,25.40
2023-03-17T11:59:42.203Z,26.46
2023-03-17T12:02:32.164Z,27.25
2023-03-17T12:05:10.063Z,26.24
2023-03-17T12:07:53.431Z,28.62
2023-03-17T12:10:40.951Z,30.77
2023-03-17T12:13:35.726Z,30.18
2023-03-17T12:16:33.542Z,29.11
2023-03-17T12:19:08.603Z,28.93
2023-03-17T12:21:52.819Z,28.07
2023-03-17T12:24:35.022Z,28.68
2023-03-17T12:27:06.148Z,25.83
2023-03-17T12:29:52.742Z,26.20
2023-03-17T12:32:48.232Z,25.09
2023-03-17T12:35:38.864Z,25.39
2023-03-17T12:38:28.016Z,25.76
2023-03-17T12:41:31.742Z,26.88
2023-03-17T12:44:08.090Z,27.56
2023-03-17T12:46:48.351Z,29.60
2023-03-17T12:49:22.991Z,28.98
2023-03-17T12:52:13.734Z,27.94
2023-03-17T12:54:46.772Z,27.70
2023-03-17T12:57:42.921Z,27.47
2023-03-17T13:00:25.421Z,26.21
2023-03-17T13:03:25.841Z,28.17
2023-03-17T13:06:04.624Z,26.91
2023-03-17T13:08:43.251Z,27.94
2023-03-17T13:11:18.688Z,29.22
2023-03-17T13:14:09.874Z,28.15
2023-03-17T13:16:44.962Z,27.71
2023-03-17T13:19:32.680Z,25.60
2023-03-17T13:22:01.404Z,25.15
2023-03-17T13:24:49.275Z,24.12
2023-03-17T13:27:32.834Z,24.75
2023-03-17T13:30:26.191Z,25.76
2023-03-17T13:33:04.256Z,25.81
2023-03-17T13:35:45.518Z,25.50
2023-03-17T13:39:04.892Z,27.37
2023-03-17T13:42:18.909Z,26.69
2023-03-17T13:45:06.397Z,27.23
2023-03-17T13:47:42.496Z,28.04
2023-03-17T13:50:17.973Z,29.59
2023-03-17T13:53:02.800Z,30.51
2023-03-17T13:55:38.689Z,31.15
2023-03-17T13:58:13.526Z,31.37
2023-03-17T14:01:27.773Z,30.25
2023-03-17T14:03:57.194Z,30.18
2023-03-17T14:06:32.502Z,28.96
2023-03-17T14:10:01.678Z,29.75
2023-03-17T14:17:04.337Z,32.22
2023-03-17T14:19:33.736Z,29.89
2023-03-17T14:22:23.592Z,29.49
2023-03-17T14:24:59.476Z,28.77
2023-03-17T14:27:31.615Z,28.12
2023-03-17T14:30:07.214Z,28.70
2023-03-17T14:32:35.753Z,29.39
2023-03-17T14:35:04.500Z,29.44
2023-03-17T14:37:32.927Z,29.21
2023-03-17T14:40:01.311Z,30.35
2023-03-17T14:42:31.620Z,30.67
2023-03-17T14:45:06.762Z,31.26
2023-03-17T14:47:54.088Z,32.11
2023-03-17T14:50:32.512Z,32.57
2023-03-17T14:53:01.733Z,31.96
2023-03-17T15:00:27.854Z,31.36
2023-03-17T15:02:58.660Z,31.92
2023-03-17T15:05:31.017Z,31.29
2023-03-17T15:08:36.513Z,31.43
2023-03-17T15:11:07.427Z,30.41
2023-03-17T15:13:37.041Z,30.77
2023-03-17T15:16:07.619Z,30.34
2023-03-17T15:18:37.445Z,29.87
2023-03-17T15:21:44.714Z,31.02
2023-03-17T15:24:25.008Z,30.66
2023-03-17T15:27:20.570Z,30.70
2023-03-17T15:29:49.211Z,31.05
2023-03-17T15:32:20.562Z,31.72
2023-03-17T15:34:50.448Z,32.09
2023-03-17T15:37:22.267Z,33.15
2023-03-17T15:39:53.222Z,32.01
2023-03-17T15:50:39.420Z,31.74
2023-03-17T15:53:10.510Z,30.75
2023-03-17T15:55:38.840Z,31.96
2023-03-17T15:58:07.482Z,31.54
2023-03-17T16:00:36.488Z,32.35
2023-03-17T16:07:13.395Z,33.93
2023-03-17T16:14:15.589Z,34.48
2023-03-17T16:16:54.365Z,36.95
2023-03-17T16:19:25.185Z,35.81
2023-03-17T16:21:55.444Z,36.52
2023-03-17T16:24:26.246Z,37.04
2023-03-17T16:26:54.512Z,37.62
2023-03-17T16:29:23.896Z,37.98
2023-03-17T16:31:52.332Z,38.08
2023-03-17T16:34:23.835Z,38.11
2023-03-17T16:41:28.480Z,38.52
2023-03-17T16:44:02.220Z,38.53
2023-03-17T16:51:13.221Z,39.32
2023-03-17T17:12:42.054Z,39.83
2023-03-17T17:15:12.855Z,40.22
2023-03-17T17:17:45.126Z,40.58
2023-03-17T17:24:47.917Z,40.81
2023-03-17T17:27:16.481Z,40.72
2023-03-17T17:29:44.827Z,40.99
2023-03-17T17:32:13.601Z,40.76
2023-03-17T17:35:54.944Z,40.60
2023-03-17T17:42:31.142Z,41.33
2023-03-17T17:44:59.903Z,41.57
2023-03-17T17:47:32.224Z,41.61
2023-03-17T17:50:00.897Z,41.62
2023-03-17T18:04:13.947Z,41.97
2023-03-17T18:06:43.562Z,42.23
2023-03-17T18:09:12.184Z,42.21
2023-03-17T18:11:42.287Z,42.24
2023-03-17T18:14:11.474Z,42.65
2023-03-17T18:16:40.838Z,42.61
2023-03-17T18:19:12.889Z,43.01
2023-03-17T18:21:41.621Z,42.96
2023-03-17T18:24:11.307Z,42.75
2023-03-17T18:26:40.063Z,43.01
2023-03-17T18:29:09.798Z,42.75
2023-03-17T18:31:44.701Z,42.82
2023-03-17T18:34:19.409Z,43.42
2023-03-17T18:36:52.483Z,44.07
2023-03-17T18:39:27.091Z,43.61
2023-03-17T18:41:56.118Z,44.60
2023-03-17T18:44:25.170Z,44.34
2023-03-17T18:46:56.553Z,45.49
2023-03-17T18:49:27.267Z,45.13
2023-03-17T18:51:57.093Z,45.09
2023-03-17T18:54:27.997Z,45.03
2023-03-17T18:57:00.322Z,45.13
2023-03-17T18:59:32.311Z,45.42
2023-03-17T19:02:01.205Z,45.82
2023-03-17T19:04:29.586Z,46.05
2023-03-17T19:06:58.264Z,45.88
2023-03-17T19:09:27.542Z,45.95
2023-03-17T19:11:56.231Z,46.14
2023-03-17T19:14:24.611Z,46.05
2023-03-17T19:16:53.040Z,45.96
2023-03-17T19:19:23.507Z,46.10
2023-03-17T19:21:52.562Z,46.40
2023-03-17T19:24:21.282Z,46.60
2023-03-17T19:26:52.412Z,47.20
2023-03-17T19:29:21.622Z,46.91
2023-03-17T19:31:49.962Z,46.71
2023-03-17T19:34:18.434Z,46.83
2023-03-17T19:36:47.373Z,46.75
2023-03-17T19:39:16.851Z,48.00
2023-03-17T19:41:47.541Z,47.11
2023-03-17T19:44:15.976Z,48.18
2023-03-17T19:46:44.569Z,48.65
2023-03-17T19:49:13.933Z,48.20
2023-03-17T19:51:42.708Z,47.72
2023-03-17T19:54:12.019Z,47.74
2023-03-17T19:56:40.833Z,47.89
2023-03-17T19:59:09.769Z,47.70
2023-03-17T20:01:39.089Z,47.46
2023-03-17T20:04:10.347Z,48.62
2023-03-17T20:06:38.684Z,51.10
2023-03-17T20:09:12.112Z,49.02
2023-03-17T20:11:41.794Z,48.28
2023-03-17T20:14:11.722Z,48.19
2023-03-17T20:16:41.544Z,48.44
2023-03-17T20:19:12.934Z,48.72
2023-03-17T20:21:42.319Z,50.02
2023-03-17T20:24:13.102Z,49.74
2023-03-17T20:26:45.162Z,50.48
2023-03-17T20:29:14.624Z,49.29
2023-03-17T20:31:44.053Z,48.72
2023-03-17T20:34:16.492Z,48.67
2023-03-17T20:36:45.009Z,48.82
2023-03-17T20:39:20.088Z,49.61
2023-03-17T20:41:52.718Z,49.49
2023-03-17T20:44:21.963Z,49.47
2023-03-17T20:46:51.396Z,50.36
2023-03-17T20:49:19.930Z,50.13
2023-03-17T20:51:48.391Z,49.85
2023-03-17T20:54:18.163Z,50.39
2023-03-17T20:56:53.852Z,50.66
2023-03-17T20:59:24.568Z,50.87
2023-03-17T21:01:53.448Z,50.87
2023-03-17T21:04:24.798Z,51.49
2023-03-17T21:07:05.210Z,50.98
2023-03-17T21:09:34.556Z,51.59
2023-03-17T21:12:03.133Z,51.37
2023-03-17T21:14:31.830Z,52.60
2023-03-17T21:17:01.645Z,54.46
2023-03-17T21:19:30.104Z,52.52
2023-03-17T21:21:58.877Z,51.68
2023-03-17T21:24:33.988Z,52.20
2023-03-17T21:27:05.289Z,53.19
2023-03-17T21:29:34.895Z,53.33
2023-03-17T21:32:05.607Z,53.33
2023-03-17T21:34:34.422Z,53.28
2023-03-17T21:37:03.393Z,52.68
2023-03-17T21:39:32.997Z,53.36
2023-03-17T21:42:02.384Z,53.34
2023-03-17T21:44:32.749Z,56.65
2023-03-17T21:47:03.260Z,56.33
2023-03-17T21:49:31.751Z,54.22
2023-03-17T21:52:00.223Z,54.50
2023-03-17T21:54:28.723Z,55.14
2023-03-17T21:56:57.311Z,54.14
2023-03-17T21:59:26.321Z,53.66
2023-03-17T22:01:54.920Z,54.05
2023-03-17T22:04:23.577Z,54.20
2023-03-17T22:06:53.887Z,54.27
2023-03-17T22:09:22.400Z,56.60
2023-03-17T22:11:50.876Z,54.85
2023-03-17T22:14:20.913Z,53.97
2023-03-17T22:16:49.859Z,54.74
2023-03-17T22:19:21.018Z,54.27
2023-03-17T22:21:50.676Z,54.06
2023-03-17T22:24:19.139Z,55.34
2023-03-17T22:26:48.084Z,54.18
2023-03-17T22:29:16.470Z,55.02
2023-03-17T22:31:45.006Z,55.57
2023-03-17T22:34:14.210Z,55.95
2023-03-17T22:36:42.566Z,55.81
2023-03-17T22:39:11.012Z,55.31
2023-03-17T22:41:39.507Z,54.73
2023-03-17T22:44:10.408Z,55.13
2023-03-17T22:46:41.047Z,55.58
2023-03-17T22:49:10.157Z,56.70
2023-03-17T22:51:41.489Z,56.70
2023-03-17T22:54:11.880Z,58.02
2023-03-17T22:56:40.513Z,58.70
2023-03-17T22:59:08.892Z,60.68
2023-03-17T23:01:37.373Z,60.91
2023-03-17T23:04:07.995Z,61.56
2023-03-17T23:06:36.847Z,61.89
2023-03-17T23:09:05.466Z,62.00
2023-03-17T23:11:33.881Z,61.55
2023-03-17T23:14:03.025Z,62.23
2023-03-17T23:16:32.370Z,63.65
2023-03-17T23:19:01.137Z,63.19
2023-03-17T23:21:32.747Z,63.65
2023-03-17T23:24:01.657Z,63.94
2023-03-17T23:26:30.393Z,63.38
2023-03-17T23:28:58.861Z,62.44
2023-03-17T23:31:27.666Z,62.26
2023-03-17T23:33:56.799Z,61.84
2023-03-17T23:36:25.879Z,61.37
2023-03-17T23:38:54.269Z,61.49
2023-03-17T23:41:22.921Z,61.69
2023-03-17T23:43:51.511Z,61.56
2023-03-17T23:46:20.793Z,62.57
2023-03-17T23:48:49.854Z,61.31
2023-03-17T23:51:18.702Z,62.87
2023-03-17T23:53:48.261Z,61.92
2023-03-17T23:56:16.748Z,61.99
2023-03-17T23:58:45.275Z,62.13
